createdAt,value
2017-08-06T00:00:10.521Z,993.0
2017-08-06T00:01:11.174Z,993.0
2017-08-06T00:02:12.128Z,993.0
2017-08-06T00:03:12.781Z,993.0
2017-08-06T00:04:13.434Z,992.9
2017-08-06T00:05:14.090Z,993.0
2017-08-06T00:06:14.742Z,993.0
2017-08-06T00:07:15.645Z,993.0
2017-08-06T00:08:16.300Z,993.0
2017-08-06T00:09:16.954Z,993.0
2017-08-06T00:10:17.607Z,993.0
2017-08-06T00:11:18.262Z,993.0
2017-08-06T00:12:19.215Z,993.0
2017-08-06T00:13:19.868Z,993.0
2017-08-06T00:14:20.522Z,993.0
2017-08-06T00:15:21.175Z,993.0
2017-08-06T00:16:21.828Z,993.0
2017-08-06T00:17:22.732Z,993.0
2017-08-06T00:18:23.383Z,993.0
2017-08-06T00:19:24.037Z,993.1
2017-08-06T00:20:24.692Z,993.1
2017-08-06T00:21:25.345Z,993.1
2017-08-06T00:22:26.248Z,993.1
2017-08-06T00:23:26.905Z,993.1
2017-08-06T00:24:27.555Z,993.1
2017-08-06T00:25:28.212Z,993.1
2017-08-06T00:26:28.901Z,993.1
2017-08-06T00:27:29.842Z,993.0
2017-08-06T00:28:30.496Z,993.0
2017-08-06T00:29:31.150Z,993.1
2017-08-06T00:30:31.803Z,993.0
2017-08-06T00:31:32.457Z,993.0
2017-08-06T00:32:33.411Z,993.1
2017-08-06T00:33:34.099Z,993.1
2017-08-06T00:34:34.752Z,993.0
2017-08-06T00:35:35.406Z,993.1
2017-08-06T00:36:36.060Z,993.1
2017-08-06T00:37:36.965Z,993.1
2017-08-06T00:38:37.617Z,993.1
2017-08-06T00:39:38.270Z,993.1
2017-08-06T00:40:38.925Z,993.2
2017-08-06T00:41:39.576Z,993.2
2017-08-06T00:42:40.531Z,993.2
2017-08-06T00:43:41.183Z,993.2
2017-08-06T00:44:41.836Z,993.2
2017-08-06T00:45:42.488Z,993.2
2017-08-06T00:46:43.141Z,993.2
2017-08-06T00:47:44.097Z,993.2
2017-08-06T00:48:44.748Z,993.2
2017-08-06T00:49:45.401Z,993.2
2017-08-06T00:50:46.055Z,993.2
2017-08-06T00:51:46.708Z,993.2
2017-08-06T00:52:47.697Z,993.2
2017-08-06T00:53:48.352Z,993.3
2017-08-06T00:54:49.003Z,993.3
2017-08-06T00:55:49.656Z,993.4
2017-08-06T00:56:50.311Z,993.4
2017-08-06T00:57:51.298Z,993.4
2017-08-06T00:58:51.951Z,993.4
2017-08-06T00:59:52.605Z,993.4
2017-08-06T01:00:53.259Z,993.4
2017-08-06T01:01:53.910Z,993.4
2017-08-06T01:02:54.865Z,993.5
2017-08-06T01:03:55.518Z,993.4
2017-08-06T01:04:56.169Z,993.4
2017-08-06T01:05:56.828Z,993.5
2017-08-06T01:06:57.481Z,993.5
2017-08-06T01:07:58.434Z,993.5
2017-08-06T01:08:59.086Z,993.5
2017-08-06T01:09:59.742Z,993.5
2017-08-06T01:11:00.396Z,993.5
2017-08-06T01:12:01.045Z,993.5
2017-08-06T01:13:02.000Z,993.5
2017-08-06T01:14:02.651Z,993.6
2017-08-06T01:15:03.304Z,993.6
2017-08-06T01:16:03.959Z,993.6
2017-08-06T01:17:04.614Z,993.6
2017-08-06T01:18:05.517Z,993.7
2017-08-06T01:19:06.171Z,993.7
2017-08-06T01:20:06.824Z,993.7
2017-08-06T01:21:07.479Z,993.7
2017-08-06T01:22:08.132Z,993.6
2017-08-06T01:23:09.134Z,993.6
2017-08-06T01:24:09.786Z,993.7
2017-08-06T01:25:10.441Z,993.7
2017-08-06T01:26:11.093Z,993.7
2017-08-06T01:27:11.748Z,993.7
2017-08-06T01:28:12.700Z,993.7
2017-08-06T01:29:13.352Z,993.7
2017-08-06T01:30:14.005Z,993.6
2017-08-06T01:31:14.658Z,993.7
2017-08-06T01:32:15.308Z,993.7
2017-08-06T01:33:16.263Z,993.7
2017-08-06T01:34:16.916Z,993.7
2017-08-06T01:35:17.571Z,993.7
2017-08-06T01:36:18.262Z,993.7
2017-08-06T01:37:18.911Z,993.7
2017-08-06T01:38:19.912Z,993.7
2017-08-06T01:39:20.567Z,993.7
2017-08-06T01:40:21.218Z,993.7
2017-08-06T01:41:21.873Z,993.8
2017-08-06T01:42:22.524Z,993.8
2017-08-06T01:43:23.427Z,993.8
2017-08-06T01:44:24.114Z,993.8
2017-08-06T01:45:24.766Z,993.8
2017-08-06T01:46:25.420Z,993.8
2017-08-06T01:47:26.072Z,993.8
2017-08-06T01:48:26.975Z,993.8
2017-08-06T01:49:27.628Z,993.8
2017-08-06T01:50:28.280Z,993.8
2017-08-06T01:51:28.933Z,993.8
2017-08-06T01:52:29.586Z,993.8
2017-08-06T01:53:30.539Z,993.7
2017-08-06T01:54:31.192Z,993.7
2017-08-06T01:55:31.844Z,993.8
2017-08-06T01:56:32.503Z,993.8
2017-08-06T01:57:33.159Z,993.8
2017-08-06T01:58:34.060Z,993.8
2017-08-06T01:59:34.713Z,993.8
2017-08-06T02:00:35.368Z,993.7
2017-08-06T02:01:36.020Z,993.7
2017-08-06T02:02:36.673Z,993.8
2017-08-06T02:03:37.577Z,993.7
2017-08-06T02:04:38.230Z,993.8
2017-08-06T02:05:38.918Z,993.7
2017-08-06T02:06:39.571Z,993.7
2017-08-06T02:07:40.222Z,993.7
2017-08-06T02:08:41.176Z,993.7
2017-08-06T02:09:41.867Z,993.7
2017-08-06T02:10:42.519Z,993.7
2017-08-06T02:11:43.171Z,993.7
2017-08-06T02:12:43.826Z,993.7
2017-08-06T02:13:44.728Z,993.7
2017-08-06T02:14:45.382Z,993.7
2017-08-06T02:15:46.037Z,993.8
2017-08-06T02:16:46.690Z,993.8
2017-08-06T02:17:47.377Z,993.8
2017-08-06T02:18:48.335Z,993.8
2017-08-06T02:19:48.984Z,993.9
2017-08-06T02:20:49.636Z,993.8
2017-08-06T02:21:50.290Z,993.9
2017-08-06T02:22:50.978Z,993.9
2017-08-06T02:23:51.934Z,993.9
2017-08-06T02:24:52.585Z,993.9
2017-08-06T02:25:53.238Z,993.9
2017-08-06T02:26:53.890Z,993.9
2017-08-06T02:27:54.544Z,993.9
2017-08-06T02:28:55.447Z,994.0
2017-08-06T02:29:56.103Z,994.0
2017-08-06T02:30:56.786Z,994.0
2017-08-06T02:31:57.441Z,993.9
2017-08-06T02:32:58.094Z,994.0
2017-08-06T02:33:59.047Z,994.0
2017-08-06T02:34:59.701Z,994.0
2017-08-06T02:36:00.352Z,994.1
2017-08-06T02:37:01.008Z,994.1
2017-08-06T02:38:01.659Z,994.1
2017-08-06T02:39:02.663Z,994.1
2017-08-06T02:40:03.314Z,994.1
2017-08-06T02:41:03.968Z,994.1
2017-08-06T02:42:04.623Z,994.1
2017-08-06T02:43:05.310Z,994.1
2017-08-06T02:44:06.211Z,994.1
2017-08-06T02:45:06.864Z,994.1
2017-08-06T02:46:07.518Z,994.1
2017-08-06T02:47:08.171Z,994.1
2017-08-06T02:48:08.861Z,994.1
2017-08-06T02:49:09.771Z,994.1
2017-08-06T02:50:10.416Z,994.1
2017-08-06T02:51:11.069Z,994.1
2017-08-06T02:52:11.729Z,994.1
2017-08-06T02:53:12.382Z,994.2
2017-08-06T02:54:13.334Z,994.1
2017-08-06T02:55:13.988Z,994.2
2017-08-06T02:56:14.641Z,994.2
2017-08-06T02:57:15.293Z,994.2
2017-08-06T02:58:15.947Z,994.2
2017-08-06T02:59:16.851Z,994.2
2017-08-06T03:00:17.503Z,994.2
2017-08-06T03:01:18.155Z,994.2
2017-08-06T03:02:18.810Z,994.2
2017-08-06T03:03:19.464Z,994.2
2017-08-06T03:04:20.403Z,994.2
2017-08-06T03:05:21.056Z,994.2
2017-08-06T03:06:21.709Z,994.2
2017-08-06T03:07:22.362Z,994.3
2017-08-06T03:08:23.051Z,994.3
2017-08-06T03:09:24.006Z,994.2
2017-08-06T03:10:24.660Z,994.3
2017-08-06T03:11:25.314Z,994.3
2017-08-06T03:12:25.967Z,994.3
2017-08-06T03:13:26.621Z,994.3
2017-08-06T03:14:27.625Z,994.3
2017-08-06T03:15:28.279Z,994.4
2017-08-06T03:16:28.931Z,994.4
2017-08-06T03:17:29.586Z,994.4
2017-08-06T03:18:30.239Z,994.4
2017-08-06T03:19:31.144Z,994.4
2017-08-06T03:20:31.796Z,994.4
2017-08-06T03:21:32.450Z,994.4
2017-08-06T03:22:33.105Z,994.4
2017-08-06T03:23:33.758Z,994.5
2017-08-06T03:24:34.713Z,994.5
2017-08-06T03:25:35.367Z,994.5
2017-08-06T03:26:36.023Z,994.5
2017-08-06T03:27:36.682Z,994.5
2017-08-06T03:28:37.331Z,994.5
2017-08-06T03:29:38.234Z,994.5
2017-08-06T03:30:38.892Z,994.5
2017-08-06T03:31:39.604Z,994.4
2017-08-06T03:32:40.271Z,994.5
2017-08-06T03:33:40.922Z,994.4
2017-08-06T03:34:41.827Z,994.4
2017-08-06T03:35:42.483Z,994.4
2017-08-06T03:36:43.170Z,994.4
2017-08-06T03:37:43.824Z,994.4
2017-08-06T03:38:44.479Z,994.4
2017-08-06T03:39:45.442Z,994.4
2017-08-06T03:40:46.100Z,994.5
2017-08-06T03:41:46.754Z,994.5
2017-08-06T03:42:47.446Z,994.5
2017-08-06T03:43:48.102Z,994.5
2017-08-06T03:44:49.007Z,994.5
2017-08-06T03:45:49.660Z,994.5
2017-08-06T03:46:50.318Z,994.6
2017-08-06T03:47:50.973Z,994.6
2017-08-06T03:48:51.627Z,994.5
2017-08-06T03:49:52.582Z,994.6
2017-08-06T03:50:53.238Z,994.6
2017-08-06T03:51:53.894Z,994.7
2017-08-06T03:52:54.549Z,994.7
2017-08-06T03:53:55.205Z,994.7
2017-08-06T03:54:56.159Z,994.7
2017-08-06T03:55:56.815Z,994.7
2017-08-06T03:56:57.469Z,994.7
2017-08-06T03:57:58.127Z,994.7
2017-08-06T03:58:58.818Z,994.7
2017-08-06T03:59:59.726Z,994.7
2017-08-06T04:01:00.383Z,994.8
2017-08-06T04:02:01.074Z,994.7
2017-08-06T04:03:01.734Z,994.7
2017-08-06T04:04:02.390Z,994.8
2017-08-06T04:05:03.348Z,994.7
2017-08-06T04:06:04.006Z,994.7
2017-08-06T04:07:04.662Z,994.8
2017-08-06T04:08:05.318Z,994.8
2017-08-06T04:09:05.976Z,994.8
2017-08-06T04:10:06.969Z,994.8
2017-08-06T04:11:07.627Z,994.8
2017-08-06T04:12:08.284Z,994.9
2017-08-06T04:13:08.943Z,994.8
2017-08-06T04:14:09.601Z,994.9
2017-08-06T04:15:10.507Z,994.9
2017-08-06T04:16:11.165Z,994.9
2017-08-06T04:17:11.823Z,994.9
2017-08-06T04:18:12.481Z,994.9
2017-08-06T04:19:13.138Z,994.9
2017-08-06T04:20:14.131Z,994.9
2017-08-06T04:21:14.789Z,994.9
2017-08-06T04:22:15.446Z,995.0
2017-08-06T04:23:16.105Z,995.0
2017-08-06T04:24:16.758Z,995.0
2017-08-06T04:25:17.715Z,995.0
2017-08-06T04:26:18.374Z,994.9
2017-08-06T04:27:19.028Z,995.0
2017-08-06T04:28:19.688Z,995.0
2017-08-06T04:29:20.343Z,995.0
2017-08-06T04:30:21.248Z,995.0
2017-08-06T04:31:21.905Z,995.0
2017-08-06T04:32:22.562Z,995.0
2017-08-06T04:33:23.218Z,995.0
2017-08-06T04:34:23.874Z,995.0
2017-08-06T04:35:24.830Z,995.0
2017-08-06T04:36:25.494Z,995.0
2017-08-06T04:37:26.162Z,995.0
2017-08-06T04:38:26.799Z,995.0
2017-08-06T04:39:27.460Z,995.1
2017-08-06T04:40:28.379Z,995.1
2017-08-06T04:41:29.036Z,995.1
2017-08-06T04:42:29.693Z,995.1
2017-08-06T04:43:30.351Z,995.1
2017-08-06T04:44:31.009Z,995.1
2017-08-06T04:45:31.952Z,995.1
2017-08-06T04:46:32.643Z,995.1
2017-08-06T04:47:33.300Z,995.1
2017-08-06T04:48:33.958Z,995.1
2017-08-06T04:49:34.616Z,995.1
2017-08-06T04:50:35.573Z,995.2
2017-08-06T04:51:36.231Z,995.2
2017-08-06T04:52:36.925Z,995.2
2017-08-06T04:53:37.592Z,995.2
2017-08-06T04:54:38.240Z,995.2
2017-08-06T04:55:39.147Z,995.2
2017-08-06T04:56:39.803Z,995.2
2017-08-06T04:57:40.460Z,995.2
2017-08-06T04:58:41.167Z,995.3
2017-08-06T04:59:41.823Z,995.3
2017-08-06T05:00:42.781Z,995.3
2017-08-06T05:01:43.439Z,995.2
2017-08-06T05:02:44.096Z,995.3
2017-08-06T05:03:44.753Z,995.2
2017-08-06T05:04:45.408Z,995.3
2017-08-06T05:05:46.367Z,995.3
2017-08-06T05:06:47.025Z,995.3
2017-08-06T05:07:47.681Z,995.3
2017-08-06T05:08:48.339Z,995.3
2017-08-06T05:09:49.007Z,995.3
2017-08-06T05:10:49.914Z,995.4
2017-08-06T05:11:50.573Z,995.4
2017-08-06T05:12:51.229Z,995.3
2017-08-06T05:13:51.886Z,995.4
2017-08-06T05:14:52.584Z,995.4
2017-08-06T05:15:53.491Z,995.4
2017-08-06T05:16:54.148Z,995.4
2017-08-06T05:17:54.805Z,995.4
2017-08-06T05:18:55.463Z,995.4
2017-08-06T05:19:56.119Z,995.4
2017-08-06T05:20:57.027Z,995.5
2017-08-06T05:21:57.684Z,995.5
2017-08-06T05:22:58.340Z,995.4
2017-08-06T05:23:58.997Z,995.4
2017-08-06T05:24:59.657Z,995.4
2017-08-06T05:26:00.563Z,995.4
2017-08-06T05:27:01.219Z,995.5
2017-08-06T05:28:01.876Z,995.5
2017-08-06T05:29:02.534Z,995.5
2017-08-06T05:30:03.190Z,995.5
2017-08-06T05:31:04.099Z,995.5
2017-08-06T05:32:04.755Z,995.5
2017-08-06T05:33:05.416Z,995.5
2017-08-06T05:34:06.107Z,995.5
2017-08-06T05:35:06.765Z,995.6
2017-08-06T05:36:07.672Z,995.6
2017-08-06T05:37:08.332Z,995.6
2017-08-06T05:38:08.991Z,995.6
2017-08-06T05:39:09.649Z,995.6
2017-08-06T05:40:10.307Z,995.7
2017-08-06T05:41:11.266Z,995.6
2017-08-06T05:42:11.926Z,995.7
2017-08-06T05:43:12.584Z,995.7
2017-08-06T05:44:13.243Z,995.7
2017-08-06T05:45:13.902Z,995.7
2017-08-06T05:46:14.811Z,995.8
2017-08-06T05:47:15.472Z,995.7
2017-08-06T05:48:16.133Z,995.8
2017-08-06T05:49:16.795Z,995.8
2017-08-06T05:50:17.452Z,995.8
2017-08-06T05:51:18.359Z,995.8
2017-08-06T05:52:19.020Z,995.8
2017-08-06T05:53:19.680Z,995.8
2017-08-06T05:54:20.339Z,995.8
2017-08-06T05:55:20.999Z,995.8
2017-08-06T05:56:21.957Z,995.8
2017-08-06T05:57:22.628Z,995.8
2017-08-06T05:58:23.279Z,995.8
2017-08-06T05:59:23.938Z,995.8
2017-08-06T06:00:24.595Z,995.8
2017-08-06T06:01:25.504Z,995.9
2017-08-06T06:02:26.166Z,995.9
2017-08-06T06:03:26.826Z,995.9
2017-08-06T06:04:27.485Z,995.9
2017-08-06T06:05:28.142Z,995.9
2017-08-06T06:06:29.052Z,995.9
2017-08-06T06:07:29.713Z,995.9
2017-08-06T06:08:30.373Z,995.9
2017-08-06T06:09:31.031Z,995.9
2017-08-06T06:10:31.692Z,995.9
2017-08-06T06:11:32.650Z,995.9
2017-08-06T06:12:33.311Z,995.9
2017-08-06T06:13:33.972Z,995.9
2017-08-06T06:14:34.631Z,996.0
2017-08-06T06:15:35.290Z,996.0
2017-08-06T06:16:36.249Z,996.0
2017-08-06T06:17:36.909Z,996.1
2017-08-06T06:18:37.606Z,996.1
2017-08-06T06:19:38.265Z,996.0
2017-08-06T06:20:38.923Z,996.2
2017-08-06T06:21:39.870Z,996.1
2017-08-06T06:22:40.531Z,996.2
2017-08-06T06:23:41.189Z,996.2
2017-08-06T06:24:41.848Z,996.2
2017-08-06T06:25:42.507Z,996.2
2017-08-06T06:26:43.504Z,996.2
2017-08-06T06:27:44.165Z,996.2
2017-08-06T06:28:44.824Z,996.2
2017-08-06T06:29:45.484Z,996.2
2017-08-06T06:30:46.145Z,996.2
2017-08-06T06:31:47.104Z,996.2
2017-08-06T06:32:47.801Z,996.2
2017-08-06T06:33:48.460Z,996.2
2017-08-06T06:34:49.119Z,996.2
2017-08-06T06:35:49.779Z,996.2
2017-08-06T06:36:50.740Z,996.2
2017-08-06T06:37:51.401Z,996.2
2017-08-06T06:38:52.060Z,996.2
2017-08-06T06:39:52.720Z,996.2
2017-08-06T06:40:53.380Z,996.2
2017-08-06T06:41:54.340Z,996.2
2017-08-06T06:42:55.003Z,996.3
2017-08-06T06:43:55.663Z,996.3
2017-08-06T06:44:56.324Z,996.2
2017-08-06T06:45:56.983Z,996.3
2017-08-06T06:46:57.897Z,996.3
2017-08-06T06:47:58.554Z,996.3
2017-08-06T06:48:59.215Z,996.4
2017-08-06T06:49:59.873Z,996.3
2017-08-06T06:51:00.533Z,996.3
2017-08-06T06:52:01.494Z,996.4
2017-08-06T06:53:02.152Z,996.3
2017-08-06T06:54:02.813Z,996.4
2017-08-06T06:55:03.474Z,996.4
2017-08-06T06:56:04.143Z,996.4
2017-08-06T06:57:05.045Z,996.3
2017-08-06T06:58:05.703Z,996.4
2017-08-06T06:59:06.364Z,996.4
2017-08-06T07:00:07.026Z,996.4
2017-08-06T07:01:07.685Z,996.4
2017-08-06T07:02:08.599Z,996.4
2017-08-06T07:03:09.256Z,996.4
2017-08-06T07:04:09.916Z,996.5
2017-08-06T07:05:10.577Z,996.4
2017-08-06T07:06:11.236Z,996.5
2017-08-06T07:07:12.149Z,996.5
2017-08-06T07:08:12.810Z,996.5
2017-08-06T07:09:13.473Z,996.5
2017-08-06T07:10:14.137Z,996.5
2017-08-06T07:11:14.798Z,996.5
2017-08-06T07:12:15.710Z,996.6
2017-08-06T07:13:16.372Z,996.6
2017-08-06T07:14:17.031Z,996.6
2017-08-06T07:15:17.694Z,996.6
2017-08-06T07:16:18.353Z,996.6
2017-08-06T07:17:19.264Z,996.6
2017-08-06T07:18:19.925Z,996.6
2017-08-06T07:19:20.588Z,996.6
2017-08-06T07:20:21.249Z,996.6
2017-08-06T07:21:21.911Z,996.5
2017-08-06T07:22:22.823Z,996.6
2017-08-06T07:23:23.489Z,996.6
2017-08-06T07:24:24.149Z,996.6
2017-08-06T07:25:24.817Z,996.6
2017-08-06T07:26:25.472Z,996.6
2017-08-06T07:27:26.383Z,996.6
2017-08-06T07:28:27.046Z,996.6
2017-08-06T07:29:27.709Z,996.7
2017-08-06T07:30:28.373Z,996.6
2017-08-06T07:31:29.071Z,996.7
2017-08-06T07:32:29.982Z,996.7
2017-08-06T07:33:30.644Z,996.7
2017-08-06T07:34:31.306Z,996.7
2017-08-06T07:35:31.970Z,996.7
2017-08-06T07:36:32.633Z,996.7
2017-08-06T07:37:33.545Z,996.7
2017-08-06T07:38:34.209Z,996.7
2017-08-06T07:39:34.874Z,996.7
2017-08-06T07:40:35.575Z,996.8
2017-08-06T07:41:36.238Z,996.7
2017-08-06T07:42:37.187Z,996.7
2017-08-06T07:43:37.850Z,996.7
2017-08-06T07:44:38.516Z,996.8
2017-08-06T07:45:39.180Z,996.7
2017-08-06T07:46:39.844Z,996.8
2017-08-06T07:47:40.756Z,996.8
2017-08-06T07:48:41.421Z,996.8
2017-08-06T07:49:42.083Z,996.8
2017-08-06T07:50:42.748Z,996.9
2017-08-06T07:51:43.415Z,996.9
2017-08-06T07:52:44.328Z,996.9
2017-08-06T07:53:44.991Z,996.9
2017-08-06T07:54:45.655Z,996.9
2017-08-06T07:55:46.319Z,996.9
2017-08-06T07:56:46.983Z,996.9
2017-08-06T07:57:47.955Z,996.9
2017-08-06T07:58:48.613Z,996.9
2017-08-06T07:59:49.276Z,996.9
2017-08-06T08:00:49.939Z,997.0
2017-08-06T08:01:50.604Z,996.9
2017-08-06T08:02:51.518Z,996.9
2017-08-06T08:03:52.182Z,997.0
2017-08-06T08:04:52.845Z,997.0
2017-08-06T08:05:53.510Z,997.0
2017-08-06T08:06:54.172Z,996.9
2017-08-06T08:07:55.085Z,997.0
2017-08-06T08:08:55.787Z,997.0
2017-08-06T08:09:56.451Z,997.0
2017-08-06T08:10:57.114Z,997.0
2017-08-06T08:11:57.780Z,997.0
2017-08-06T08:12:58.745Z,997.0
2017-08-06T08:13:59.412Z,997.0
2017-08-06T08:15:00.074Z,997.0
2017-08-06T08:16:00.737Z,997.0
2017-08-06T08:17:01.402Z,997.0
2017-08-06T08:18:02.366Z,997.0
2017-08-06T08:19:03.030Z,997.0
2017-08-06T08:20:03.695Z,997.0
2017-08-06T08:21:04.395Z,996.9
2017-08-06T08:22:05.056Z,996.9
2017-08-06T08:23:05.974Z,996.9
2017-08-06T08:24:06.637Z,996.9
2017-08-06T08:25:07.349Z,997.0
2017-08-06T08:26:08.011Z,996.9
2017-08-06T08:27:08.681Z,997.0
2017-08-06T08:28:09.680Z,997.0
2017-08-06T08:29:10.344Z,997.0
2017-08-06T08:30:11.018Z,996.9
2017-08-06T08:31:11.683Z,996.9
2017-08-06T08:32:12.347Z,996.9
2017-08-06T08:33:13.259Z,997.0
2017-08-06T08:34:13.924Z,997.0
2017-08-06T08:35:14.589Z,997.0
2017-08-06T08:36:15.252Z,997.0
2017-08-06T08:37:15.916Z,996.9
2017-08-06T08:38:16.831Z,997.0
2017-08-06T08:39:17.494Z,997.0
2017-08-06T08:40:18.159Z,997.0
2017-08-06T08:41:18.821Z,997.0
2017-08-06T08:42:19.484Z,997.0
2017-08-06T08:43:20.449Z,997.0
2017-08-06T08:44:21.117Z,997.0
2017-08-06T08:45:21.779Z,997.0
2017-08-06T08:46:22.446Z,997.1
2017-08-06T08:47:23.148Z,997.0
2017-08-06T08:48:24.113Z,997.0
2017-08-06T08:49:24.779Z,997.1
2017-08-06T08:50:25.443Z,997.1
2017-08-06T08:51:26.111Z,997.1
2017-08-06T08:52:26.810Z,997.1
2017-08-06T08:53:27.724Z,997.1
2017-08-06T08:54:28.387Z,997.1
2017-08-06T08:55:29.052Z,997.1
2017-08-06T08:56:29.717Z,997.1
2017-08-06T08:57:30.389Z,997.1
2017-08-06T08:58:31.349Z,997.1
2017-08-06T08:59:32.014Z,997.2
2017-08-06T09:00:32.681Z,997.2
2017-08-06T09:01:33.344Z,997.1
2017-08-06T09:02:34.009Z,997.2
2017-08-06T09:03:34.976Z,997.2
2017-08-06T09:04:35.642Z,997.2
2017-08-06T09:05:36.307Z,997.2
2017-08-06T09:06:36.973Z,997.2
2017-08-06T09:07:37.673Z,997.2
2017-08-06T09:08:38.588Z,997.2
2017-08-06T09:09:39.256Z,997.3
2017-08-06T09:10:39.920Z,997.3
2017-08-06T09:11:40.585Z,997.2
2017-08-06T09:12:41.287Z,997.2
2017-08-06T09:13:42.205Z,997.2
2017-08-06T09:14:42.906Z,997.2
2017-08-06T09:15:43.575Z,997.2
2017-08-06T09:16:44.236Z,997.2
2017-08-06T09:17:44.900Z,997.2
2017-08-06T09:18:45.817Z,997.2
2017-08-06T09:19:46.516Z,997.2
2017-08-06T09:20:47.181Z,997.2
2017-08-06T09:21:47.846Z,997.2
2017-08-06T09:22:48.511Z,997.2
2017-08-06T09:23:49.428Z,997.2
2017-08-06T09:24:50.094Z,997.2
2017-08-06T09:25:50.758Z,997.2
2017-08-06T09:26:51.423Z,997.2
2017-08-06T09:27:52.090Z,997.2
2017-08-06T09:28:53.004Z,997.2
2017-08-06T09:29:53.671Z,997.1
2017-08-06T09:30:54.336Z,997.1
2017-08-06T09:31:55.000Z,997.1
2017-08-06T09:32:55.668Z,997.1
2017-08-06T09:33:56.668Z,997.1
2017-08-06T09:34:57.335Z,997.1
2017-08-06T09:35:58.002Z,997.2
2017-08-06T09:36:58.672Z,997.1
2017-08-06T09:37:59.332Z,997.1
2017-08-06T09:39:00.251Z,997.1
2017-08-06T09:40:00.954Z,997.1
2017-08-06T09:41:01.623Z,997.1
2017-08-06T09:42:02.286Z,997.1
2017-08-06T09:43:02.950Z,997.1
2017-08-06T09:44:03.866Z,997.1
2017-08-06T09:45:04.533Z,997.1
2017-08-06T09:46:05.202Z,997.1
2017-08-06T09:47:05.870Z,997.1
2017-08-06T09:48:06.537Z,997.1
2017-08-06T09:49:07.454Z,997.1
2017-08-06T09:50:08.123Z,997.2
2017-08-06T09:51:08.792Z,997.3
2017-08-06T09:52:09.463Z,997.5
2017-08-06T09:53:10.134Z,997.7
2017-08-06T09:54:11.103Z,997.1
2017-08-06T09:55:11.770Z,997.1
2017-08-06T09:56:12.439Z,997.1
2017-08-06T09:57:13.109Z,997.1
2017-08-06T09:58:13.778Z,997.0
2017-08-06T09:59:14.745Z,997.1
2017-08-06T10:00:15.416Z,997.1
2017-08-06T10:01:16.088Z,997.9
2017-08-06T10:02:16.757Z,997.9
2017-08-06T10:03:17.428Z,997.9
2017-08-06T10:04:18.350Z,998.0
2017-08-06T10:05:19.020Z,998.0
2017-08-06T10:06:19.691Z,998.0
2017-08-06T10:07:20.362Z,998.0
2017-08-06T10:08:21.033Z,998.0
2017-08-06T10:09:21.958Z,998.0
2017-08-06T10:10:22.628Z,997.2
2017-08-06T10:11:23.299Z,997.2
2017-08-06T10:12:23.969Z,997.1
2017-08-06T10:13:24.637Z,997.1
2017-08-06T10:14:25.607Z,997.1
2017-08-06T10:15:26.278Z,997.1
2017-08-06T10:16:26.951Z,997.1
2017-08-06T10:17:27.616Z,997.0
2017-08-06T10:18:28.319Z,997.0
2017-08-06T10:19:29.241Z,998.1
2017-08-06T10:20:29.913Z,997.2
2017-08-06T10:21:30.585Z,997.1
2017-08-06T10:22:31.252Z,997.1
2017-08-06T10:23:31.923Z,997.0
2017-08-06T10:24:32.892Z,997.0
2017-08-06T10:25:33.560Z,997.0
2017-08-06T10:26:34.232Z,997.0
2017-08-06T10:27:34.902Z,997.0
2017-08-06T10:28:35.572Z,998.3
2017-08-06T10:29:36.491Z,998.4
2017-08-06T10:30:37.167Z,998.4
2017-08-06T10:31:37.838Z,997.4
2017-08-06T10:32:38.507Z,997.1
2017-08-06T10:33:39.178Z,997.3
2017-08-06T10:34:40.137Z,998.6
2017-08-06T10:35:40.808Z,998.7
2017-08-06T10:36:41.479Z,998.8
2017-08-06T10:37:42.151Z,999.0
2017-08-06T10:38:42.822Z,999.0
2017-08-06T10:39:43.744Z,999.2
2017-08-06T10:40:44.421Z,998.2
2017-08-06T10:41:45.093Z,997.1
2017-08-06T10:42:45.761Z,997.0
2017-08-06T10:43:46.430Z,997.0
2017-08-06T10:44:47.401Z,997.0
2017-08-06T10:45:48.069Z,996.9
2017-08-06T10:46:48.739Z,996.9
2017-08-06T10:47:49.415Z,997.0
2017-08-06T10:48:50.079Z,997.3
2017-08-06T10:49:50.997Z,997.0
2017-08-06T10:50:51.668Z,997.0
2017-08-06T10:51:52.336Z,997.0
2017-08-06T10:52:53.009Z,999.0
2017-08-06T10:53:53.680Z,999.1
2017-08-06T10:54:54.600Z,997.1
2017-08-06T10:55:55.269Z,997.4
2017-08-06T10:56:55.941Z,997.0
2017-08-06T10:57:56.610Z,997.0
2017-08-06T10:58:57.279Z,997.1
2017-08-06T10:59:58.199Z,997.0
2017-08-06T11:00:58.868Z,996.9
2017-08-06T11:01:59.541Z,998.2
2017-08-06T11:03:00.210Z,996.9
2017-08-06T11:04:00.879Z,997.0
2017-08-06T11:05:01.801Z,998.5
2017-08-06T11:06:02.474Z,998.4
2017-08-06T11:07:03.145Z,998.5
2017-08-06T11:08:03.827Z,997.8
2017-08-06T11:09:04.489Z,997.0
2017-08-06T11:10:05.410Z,996.9
2017-08-06T11:11:06.078Z,996.9
2017-08-06T11:12:06.750Z,996.9
2017-08-06T11:13:07.430Z,997.0
2017-08-06T11:14:08.104Z,998.6
2017-08-06T11:15:09.078Z,998.6
2017-08-06T11:16:09.750Z,997.8
2017-08-06T11:17:10.424Z,998.6
2017-08-06T11:18:11.101Z,997.8
2017-08-06T11:19:11.770Z,997.0
2017-08-06T11:20:12.691Z,997.2
2017-08-06T11:21:13.364Z,998.1
2017-08-06T11:22:14.072Z,997.9
2017-08-06T11:23:14.745Z,997.8
2017-08-06T11:24:15.418Z,997.7
2017-08-06T11:25:16.341Z,997.6
2017-08-06T11:26:17.013Z,997.5
2017-08-06T11:27:17.684Z,996.9
2017-08-06T11:28:18.356Z,997.2
2017-08-06T11:29:19.028Z,997.3
2017-08-06T11:30:19.952Z,997.2
2017-08-06T11:31:20.624Z,996.9
2017-08-06T11:32:21.294Z,996.8
2017-08-06T11:33:21.966Z,996.8
2017-08-06T11:34:22.644Z,996.8
2017-08-06T11:35:23.618Z,996.8
2017-08-06T11:36:24.287Z,996.7
2017-08-06T11:37:24.958Z,996.8
2017-08-06T11:38:25.628Z,996.7
2017-08-06T11:39:26.305Z,996.7
2017-08-06T11:40:27.275Z,996.7
2017-08-06T11:41:27.944Z,996.7
2017-08-06T11:42:28.616Z,996.9
2017-08-06T11:43:29.320Z,997.1
2017-08-06T11:44:29.993Z,997.2
2017-08-06T11:45:30.912Z,997.2
2017-08-06T11:46:31.583Z,997.2
2017-08-06T11:47:32.253Z,997.2
2017-08-06T11:48:32.924Z,997.2
2017-08-06T11:49:33.596Z,997.1
2017-08-06T11:50:34.517Z,997.1
2017-08-06T11:51:35.189Z,997.0
2017-08-06T11:52:35.857Z,996.7
2017-08-06T11:53:36.527Z,996.7
2017-08-06T11:54:37.198Z,997.2
2017-08-06T11:55:38.121Z,997.2
2017-08-06T11:56:38.793Z,997.0
2017-08-06T11:57:39.464Z,996.7
2017-08-06T11:58:40.171Z,997.1
2017-08-06T11:59:40.844Z,996.7
2017-08-06T12:00:41.816Z,996.7
2017-08-06T12:01:42.486Z,996.7
2017-08-06T12:02:43.159Z,996.7
2017-08-06T12:03:43.832Z,996.7
2017-08-06T12:04:44.501Z,996.6
2017-08-06T12:05:45.460Z,996.6
2017-08-06T12:06:46.133Z,997.0
2017-08-06T12:07:46.802Z,997.3
2017-08-06T12:08:47.474Z,997.3
2017-08-06T12:09:48.146Z,997.3
2017-08-06T12:10:49.117Z,997.3
2017-08-06T12:11:49.786Z,996.8
2017-08-06T12:12:50.457Z,997.1
2017-08-06T12:13:51.128Z,997.1
2017-08-06T12:14:51.798Z,997.5
2017-08-06T12:15:52.770Z,997.6
2017-08-06T12:16:53.442Z,997.7
2017-08-06T12:17:54.115Z,997.7
2017-08-06T12:18:54.788Z,997.6
2017-08-06T12:19:55.457Z,997.5
2017-08-06T12:20:56.429Z,997.6
2017-08-06T12:21:57.102Z,997.6
2017-08-06T12:22:57.773Z,997.7
2017-08-06T12:23:58.444Z,997.6
2017-08-06T12:24:59.119Z,997.6
2017-08-06T12:26:00.040Z,997.4
2017-08-06T12:27:00.711Z,997.1
2017-08-06T12:28:01.382Z,996.8
2017-08-06T12:29:02.054Z,997.0
2017-08-06T12:30:02.725Z,996.8
2017-08-06T12:31:03.685Z,997.4
2017-08-06T12:32:04.358Z,997.6
2017-08-06T12:33:05.033Z,997.5
2017-08-06T12:34:05.705Z,997.5
2017-08-06T12:35:06.377Z,997.5
2017-08-06T12:36:07.347Z,997.4
2017-08-06T12:37:08.021Z,997.4
2017-08-06T12:38:08.695Z,997.4
2017-08-06T12:39:09.367Z,997.3
2017-08-06T12:40:10.039Z,997.2
2017-08-06T12:41:10.961Z,996.9
2017-08-06T12:42:11.643Z,997.1
2017-08-06T12:43:12.316Z,996.9
2017-08-06T12:44:12.986Z,996.9
2017-08-06T12:45:13.659Z,996.9
2017-08-06T12:46:14.580Z,997.0
2017-08-06T12:47:15.261Z,997.0
2017-08-06T12:48:15.973Z,996.9
2017-08-06T12:49:16.643Z,996.9
2017-08-06T12:50:17.319Z,996.9
2017-08-06T12:51:18.235Z,996.9
2017-08-06T12:52:18.910Z,996.9
2017-08-06T12:53:19.575Z,997.1
2017-08-06T12:54:20.244Z,997.1
2017-08-06T12:55:20.914Z,997.2
2017-08-06T12:56:21.837Z,997.2
2017-08-06T12:57:22.509Z,997.2
2017-08-06T12:58:23.180Z,997.2
2017-08-06T12:59:23.850Z,997.2
2017-08-06T13:00:24.522Z,997.1
2017-08-06T13:01:25.445Z,997.1